sensor_id;sensor_type;location;lat;lon;timestamp;P1;durP1;ratioP1;P2;durP2;ratioP2
61960;SDS011;47923;42.506;24.192;2022-08-05T00:01:44;5.05;;;3.30;;
61960;SDS011;47923;42.506;24.192;2022-08-05T00:04:10;5.72;;;3.25;;
61960;SDS011;47923;42.506;24.192;2022-08-05T00:06:35;7.25;;;3.45;;
61960;SDS011;47923;42.506;24.192;2022-08-05T00:09:02;5.97;;;3.35;;
61960;SDS011;47923;42.506;24.192;2022-08-05T00:11:28;4.90;;;3.10;;
61960;SDS011;47923;42.506;24.192;2022-08-05T00:13:54;4.82;;;2.92;;
61960;SDS011;47923;42.506;24.192;2022-08-05T00:16:19;6.80;;;3.70;;
61960;SDS011;47923;42.506;24.192;2022-08-05T00:18:46;7.68;;;3.53;;
61960;SDS011;47923;42.506;24.192;2022-08-05T00:21:12;4.45;;;3.17;;
61960;SDS011;47923;42.506;24.192;2022-08-05T00:23:39;6.38;;;3.53;;
61960;SDS011;47923;42.506;24.192;2022-08-05T00:26:06;7.68;;;3.47;;
61960;SDS011;47923;42.506;24.192;2022-08-05T00:28:32;5.72;;;3.60;;
61960;SDS011;47923;42.506;24.192;2022-08-05T00:30:59;4.72;;;3.03;;
61960;SDS011;47923;42.506;24.192;2022-08-05T00:33:24;5.90;;;3.95;;
61960;SDS011;47923;42.506;24.192;2022-08-05T00:35:50;6.28;;;3.97;;
61960;SDS011;47923;42.506;24.192;2022-08-05T00:38:15;4.45;;;2.78;;
61960;SDS011;47923;42.506;24.192;2022-08-05T00:40:47;5.38;;;3.38;;
61960;SDS011;47923;42.506;24.192;2022-08-05T00:43:15;6.28;;;3.55;;
61960;SDS011;47923;42.506;24.192;2022-08-05T00:45:41;8.75;;;3.28;;
61960;SDS011;47923;42.506;24.192;2022-08-05T00:48:08;5.82;;;3.60;;
61960;SDS011;47923;42.506;24.192;2022-08-05T00:50:38;6.28;;;3.97;;
61960;SDS011;47923;42.506;24.192;2022-08-05T00:53:05;5.63;;;3.33;;
61960;SDS011;47923;42.506;24.192;2022-08-05T00:55:31;6.55;;;3.97;;
61960;SDS011;47923;42.506;24.192;2022-08-05T00:57:56;4.80;;;3.20;;
61960;SDS011;47923;42.506;24.192;2022-08-05T01:00:22;6.05;;;3.70;;
61960;SDS011;47923;42.506;24.192;2022-08-05T01:02:47;5.18;;;3.38;;
61960;SDS011;47923;42.506;24.192;2022-08-05T01:05:12;6.45;;;3.45;;
61960;SDS011;47923;42.506;24.192;2022-08-05T01:07:38;6.18;;;3.85;;
61960;SDS011;47923;42.506;24.192;2022-08-05T01:10:04;5.50;;;3.50;;
61960;SDS011;47923;42.506;24.192;2022-08-05T01:12:31;6.57;;;3.83;;
61960;SDS011;47923;42.506;24.192;2022-08-05T01:15:00;5.80;;;3.42;;
61960;SDS011;47923;42.506;24.192;2022-08-05T01:17:39;7.50;;;4.03;;
61960;SDS011;47923;42.506;24.192;2022-08-05T01:20:25;6.57;;;3.55;;
61960;SDS011;47923;42.506;24.192;2022-08-05T01:31:33;6.70;;;3.50;;
61960;SDS011;47923;42.506;24.192;2022-08-05T01:34:04;5.45;;;3.45;;
61960;SDS011;47923;42.506;24.192;2022-08-05T01:36:37;7.28;;;4.10;;
61960;SDS011;47923;42.506;24.192;2022-08-05T01:39:06;7.28;;;3.78;;
61960;SDS011;47923;42.506;24.192;2022-08-05T01:41:33;6.90;;;3.88;;
61960;SDS011;47923;42.506;24.192;2022-08-05T01:44:00;6.47;;;4.13;;
61960;SDS011;47923;42.506;24.192;2022-08-05T01:46:26;7.03;;;4.10;;
61960;SDS011;47923;42.506;24.192;2022-08-05T01:48:54;6.60;;;3.80;;
61960;SDS011;47923;42.506;24.192;2022-08-05T01:51:22;7.10;;;4.47;;
61960;SDS011;47923;42.506;24.192;2022-08-05T01:53:50;7.20;;;4.32;;
61960;SDS011;47923;42.506;24.192;2022-08-05T01:56:18;6.82;;;4.13;;
61960;SDS011;47923;42.506;24.192;2022-08-05T01:58:46;7.35;;;4.07;;
61960;SDS011;47923;42.506;24.192;2022-08-05T02:01:15;6.78;;;3.90;;
61960;SDS011;47923;42.506;24.192;2022-08-05T02:03:44;6.43;;;3.80;;
61960;SDS011;47923;42.506;24.192;2022-08-05T02:06:12;5.72;;;3.88;;
61960;SDS011;47923;42.506;24.192;2022-08-05T02:08:38;6.68;;;3.88;;
61960;SDS011;47923;42.506;24.192;2022-08-05T02:11:06;6.07;;;4.05;;
61960;SDS011;47923;42.506;24.192;2022-08-05T02:16:24;7.22;;;3.70;;
61960;SDS011;47923;42.506;24.192;2022-08-05T02:18:52;9.77;;;4.18;;
61960;SDS011;47923;42.506;24.192;2022-08-05T02:21:24;6.55;;;4.20;;
61960;SDS011;47923;42.506;24.192;2022-08-05T02:23:57;6.93;;;4.35;;
61960;SDS011;47923;42.506;24.192;2022-08-05T02:26:32;6.20;;;3.97;;
61960;SDS011;47923;42.506;24.192;2022-08-05T02:29:02;5.47;;;3.83;;
61960;SDS011;47923;42.506;24.192;2022-08-05T02:31:30;7.47;;;4.03;;
61960;SDS011;47923;42.506;24.192;2022-08-05T02:34:01;6.78;;;3.72;;
61960;SDS011;47923;42.506;24.192;2022-08-05T02:36:33;5.68;;;3.50;;
61960;SDS011;47923;42.506;24.192;2022-08-05T02:39:00;8.88;;;4.47;;
61960;SDS011;47923;42.506;24.192;2022-08-05T02:41:28;6.40;;;3.90;;
61960;SDS011;47923;42.506;24.192;2022-08-05T02:43:56;7.28;;;4.03;;
61960;SDS011;47923;42.506;24.192;2022-08-05T02:46:23;5.45;;;3.45;;
61960;SDS011;47923;42.506;24.192;2022-08-05T02:48:51;5.55;;;3.40;;
61960;SDS011;47923;42.506;24.192;2022-08-05T02:51:19;5.82;;;3.30;;
61960;SDS011;47923;42.506;24.192;2022-08-05T02:53:45;7.18;;;3.88;;
61960;SDS011;47923;42.506;24.192;2022-08-05T02:56:12;6.22;;;4.13;;
61960;SDS011;47923;42.506;24.192;2022-08-05T02:58:40;7.60;;;4.18;;
61960;SDS011;47923;42.506;24.192;2022-08-05T03:01:07;6.45;;;3.88;;
61960;SDS011;47923;42.506;24.192;2022-08-05T03:03:37;6.47;;;3.90;;
61960;SDS011;47923;42.506;24.192;2022-08-05T03:06:04;6.70;;;3.42;;
61960;SDS011;47923;42.506;24.192;2022-08-05T03:08:30;6.60;;;3.92;;
61960;SDS011;47923;42.506;24.192;2022-08-05T03:10:56;6.55;;;4.00;;
61960;SDS011;47923;42.506;24.192;2022-08-05T03:13:22;5.93;;;3.58;;
61960;SDS011;47923;42.506;24.192;2022-08-05T03:15:47;6.65;;;4.05;;
61960;SDS011;47923;42.506;24.192;2022-08-05T03:18:13;5.70;;;3.40;;
61960;SDS011;47923;42.506;24.192;2022-08-05T03:20:39;6.40;;;4.05;;
61960;SDS011;47923;42.506;24.192;2022-08-05T03:23:05;6.20;;;3.65;;
61960;SDS011;47923;42.506;24.192;2022-08-05T03:25:36;6.53;;;4.15;;
61960;SDS011;47923;42.506;24.192;2022-08-05T03:28:02;5.82;;;3.88;;
61960;SDS011;47923;42.506;24.192;2022-08-05T03:30:31;6.75;;;4.40;;
61960;SDS011;47923;42.506;24.192;2022-08-05T03:33:00;6.50;;;3.30;;
61960;SDS011;47923;42.506;24.192;2022-08-05T03:35:28;8.27;;;4.10;;
61960;SDS011;47923;42.506;24.192;2022-08-05T03:37:58;6.68;;;3.92;;
61960;SDS011;47923;42.506;24.192;2022-08-05T03:40:24;5.85;;;3.25;;
61960;SDS011;47923;42.506;24.192;2022-08-05T03:42:50;7.25;;;3.97;;
61960;SDS011;47923;42.506;24.192;2022-08-05T03:45:16;7.78;;;4.30;;
61960;SDS011;47923;42.506;24.192;2022-08-05T03:47:41;6.90;;;3.60;;
61960;SDS011;47923;42.506;24.192;2022-08-05T03:50:07;7.80;;;4.10;;
61960;SDS011;47923;42.506;24.192;2022-08-05T03:52:33;8.90;;;4.22;;
61960;SDS011;47923;42.506;24.192;2022-08-05T03:55:06;5.80;;;3.58;;
61960;SDS011;47923;42.506;24.192;2022-08-05T03:57:35;5.87;;;3.50;;
61960;SDS011;47923;42.506;24.192;2022-08-05T04:00:10;6.18;;;3.70;;
61960;SDS011;47923;42.506;24.192;2022-08-05T04:02:39;6.70;;;3.80;;
61960;SDS011;47923;42.506;24.192;2022-08-05T04:05:07;7.55;;;3.60;;
61960;SDS011;47923;42.506;24.192;2022-08-05T04:07:33;6.25;;;3.28;;
61960;SDS011;47923;42.506;24.192;2022-08-05T04:10:00;7.28;;;3.22;;
61960;SDS011;47923;42.506;24.192;2022-08-05T04:12:26;10.93;;;3.83;;
61960;SDS011;47923;42.506;24.192;2022-08-05T04:14:53;5.60;;;2.80;;
61960;SDS011;47923;42.506;24.192;2022-08-05T04:17:18;4.95;;;2.97;;
61960;SDS011;47923;42.506;24.192;2022-08-05T04:19:44;6.88;;;3.38;;
61960;SDS011;47923;42.506;24.192;2022-08-05T04:22:11;4.55;;;2.30;;
61960;SDS011;47923;42.506;24.192;2022-08-05T04:24:43;6.35;;;3.50;;
61960;SDS011;47923;42.506;24.192;2022-08-05T04:27:09;5.70;;;2.95;;
61960;SDS011;47923;42.506;24.192;2022-08-05T04:29:35;4.30;;;2.50;;
61960;SDS011;47923;42.506;24.192;2022-08-05T04:32:00;4.10;;;2.60;;
61960;SDS011;47923;42.506;24.192;2022-08-05T04:34:26;8.23;;;2.78;;
61960;SDS011;47923;42.506;24.192;2022-08-05T04:36:51;8.38;;;2.67;;
61960;SDS011;47923;42.506;24.192;2022-08-05T04:39:17;4.30;;;2.42;;
61960;SDS011;47923;42.506;24.192;2022-08-05T04:41:44;7.13;;;2.28;;
61960;SDS011;47923;42.506;24.192;2022-08-05T04:44:10;4.95;;;2.13;;
61960;SDS011;47923;42.506;24.192;2022-08-05T04:46:36;4.05;;;2.47;;
61960;SDS011;47923;42.506;24.192;2022-08-05T04:49:02;4.70;;;2.20;;
61960;SDS011;47923;42.506;24.192;2022-08-05T04:51:27;4.03;;;2.22;;
61960;SDS011;47923;42.506;24.192;2022-08-05T04:53:53;3.88;;;2.40;;
61960;SDS011;47923;42.506;24.192;2022-08-05T04:56:18;7.38;;;2.30;;
61960;SDS011;47923;42.506;24.192;2022-08-05T04:58:44;3.58;;;1.98;;
61960;SDS011;47923;42.506;24.192;2022-08-05T05:01:09;5.55;;;2.20;;
61960;SDS011;47923;42.506;24.192;2022-08-05T05:03:35;3.58;;;2.08;;
61960;SDS011;47923;42.506;24.192;2022-08-05T05:06:00;3.85;;;2.00;;
61960;SDS011;47923;42.506;24.192;2022-08-05T05:08:25;3.75;;;2.05;;
61960;SDS011;47923;42.506;24.192;2022-08-05T05:10:51;5.05;;;2.50;;
61960;SDS011;47923;42.506;24.192;2022-08-05T05:13:16;4.80;;;2.13;;
61960;SDS011;47923;42.506;24.192;2022-08-05T05:15:43;4.22;;;2.00;;
61960;SDS011;47923;42.506;24.192;2022-08-05T05:18:13;5.97;;;2.10;;
61960;SDS011;47923;42.506;24.192;2022-08-05T05:20:43;8.27;;;3.58;;
61960;SDS011;47923;42.506;24.192;2022-08-05T05:23:10;6.85;;;3.20;;
61960;SDS011;47923;42.506;24.192;2022-08-05T05:25:35;7.15;;;3.47;;
61960;SDS011;47923;42.506;24.192;2022-08-05T05:28:01;8.85;;;3.58;;
61960;SDS011;47923;42.506;24.192;2022-08-05T05:30:26;9.13;;;3.58;;
61960;SDS011;47923;42.506;24.192;2022-08-05T05:32:52;12.05;;;3.67;;
61960;SDS011;47923;42.506;24.192;2022-08-05T05:35:18;9.63;;;3.30;;
61960;SDS011;47923;42.506;24.192;2022-08-05T05:37:51;5.57;;;3.17;;
61960;SDS011;47923;42.506;24.192;2022-08-05T05:40:18;8.30;;;2.83;;
61960;SDS011;47923;42.506;24.192;2022-08-05T05:42:46;10.45;;;4.25;;
61960;SDS011;47923;42.506;24.192;2022-08-05T05:45:12;8.32;;;3.10;;
61960;SDS011;47923;42.506;24.192;2022-08-05T05:47:38;5.43;;;2.60;;
61960;SDS011;47923;42.506;24.192;2022-08-05T05:50:04;6.13;;;2.10;;
61960;SDS011;47923;42.506;24.192;2022-08-05T05:52:34;7.15;;;2.17;;
61960;SDS011;47923;42.506;24.192;2022-08-05T05:55:00;3.42;;;2.13;;
61960;SDS011;47923;42.506;24.192;2022-08-05T05:57:26;4.55;;;2.13;;
61960;SDS011;47923;42.506;24.192;2022-08-05T05:59:52;5.97;;;2.25;;
61960;SDS011;47923;42.506;24.192;2022-08-05T06:02:17;6.25;;;2.15;;
61960;SDS011;47923;42.506;24.192;2022-08-05T06:04:43;4.85;;;1.90;;
61960;SDS011;47923;42.506;24.192;2022-08-05T06:07:08;4.35;;;1.80;;
61960;SDS011;47923;42.506;24.192;2022-08-05T06:09:33;6.38;;;1.50;;
61960;SDS011;47923;42.506;24.192;2022-08-05T06:11:59;5.55;;;1.70;;
61960;SDS011;47923;42.506;24.192;2022-08-05T06:14:24;4.28;;;1.80;;
61960;SDS011;47923;42.506;24.192;2022-08-05T06:16:50;3.28;;;1.65;;
61960;SDS011;47923;42.506;24.192;2022-08-05T06:19:15;3.38;;;1.80;;
61960;SDS011;47923;42.506;24.192;2022-08-05T06:21:41;4.15;;;1.70;;
61960;SDS011;47923;42.506;24.192;2022-08-05T06:24:07;5.60;;;2.25;;
61960;SDS011;47923;42.506;24.192;2022-08-05T06:26:33;4.32;;;1.90;;
61960;SDS011;47923;42.506;24.192;2022-08-05T06:28:59;6.85;;;1.90;;
61960;SDS011;47923;42.506;24.192;2022-08-05T06:31:24;5.43;;;1.70;;
61960;SDS011;47923;42.506;24.192;2022-08-05T06:33:50;5.68;;;1.77;;
61960;SDS011;47923;42.506;24.192;2022-08-05T06:36:16;6.38;;;1.80;;
61960;SDS011;47923;42.506;24.192;2022-08-05T06:38:41;5.80;;;2.00;;
61960;SDS011;47923;42.506;24.192;2022-08-05T06:41:07;5.30;;;2.10;;
61960;SDS011;47923;42.506;24.192;2022-08-05T06:43:33;3.78;;;1.63;;
61960;SDS011;47923;42.506;24.192;2022-08-05T06:45:58;5.18;;;1.52;;
61960;SDS011;47923;42.506;24.192;2022-08-05T06:48:24;4.63;;;1.75;;
61960;SDS011;47923;42.506;24.192;2022-08-05T06:50:49;2.22;;;1.45;;
61960;SDS011;47923;42.506;24.192;2022-08-05T06:53:15;2.42;;;1.58;;
61960;SDS011;47923;42.506;24.192;2022-08-05T06:55:40;4.88;;;1.75;;
61960;SDS011;47923;42.506;24.192;2022-08-05T06:58:06;4.93;;;1.67;;
61960;SDS011;47923;42.506;24.192;2022-08-05T07:00:31;5.05;;;2.05;;
61960;SDS011;47923;42.506;24.192;2022-08-05T07:02:57;4.65;;;1.90;;
61960;SDS011;47923;42.506;24.192;2022-08-05T07:05:23;5.30;;;1.90;;
61960;SDS011;47923;42.506;24.192;2022-08-05T07:07:49;6.32;;;3.03;;
61960;SDS011;47923;42.506;24.192;2022-08-05T07:10:14;5.72;;;2.88;;
61960;SDS011;47923;42.506;24.192;2022-08-05T07:12:40;5.40;;;2.67;;
61960;SDS011;47923;42.506;24.192;2022-08-05T07:15:24;3.25;;;1.50;;
61960;SDS011;47923;42.506;24.192;2022-08-05T07:18:08;5.30;;;1.60;;
61960;SDS011;47923;42.506;24.192;2022-08-05T07:20:33;3.65;;;1.45;;
61960;SDS011;47923;42.506;24.192;2022-08-05T07:22:59;2.47;;;1.52;;
61960;SDS011;47923;42.506;24.192;2022-08-05T07:25:24;4.03;;;1.30;;
61960;SDS011;47923;42.506;24.192;2022-08-05T07:27:50;5.38;;;1.58;;
61960;SDS011;47923;42.506;24.192;2022-08-05T07:30:18;5.80;;;1.40;;
61960;SDS011;47923;42.506;24.192;2022-08-05T07:32:44;5.03;;;1.63;;
61960;SDS011;47923;42.506;24.192;2022-08-05T07:35:10;4.38;;;1.48;;
61960;SDS011;47923;42.506;24.192;2022-08-05T07:37:37;1.67;;;1.10;;
61960;SDS011;47923;42.506;24.192;2022-08-05T07:40:03;1.70;;;1.40;;
61960;SDS011;47923;42.506;24.192;2022-08-05T07:42:29;2.30;;;1.10;;
61960;SDS011;47923;42.506;24.192;2022-08-05T07:44:54;3.75;;;1.33;;
61960;SDS011;47923;42.506;24.192;2022-08-05T07:47:20;2.65;;;1.20;;
61960;SDS011;47923;42.506;24.192;2022-08-05T07:49:46;3.55;;;1.40;;
61960;SDS011;47923;42.506;24.192;2022-08-05T07:52:12;2.75;;;1.48;;
61960;SDS011;47923;42.506;24.192;2022-08-05T07:54:37;4.85;;;2.08;;
61960;SDS011;47923;42.506;24.192;2022-08-05T07:57:03;2.38;;;1.60;;
61960;SDS011;47923;42.506;24.192;2022-08-05T07:59:29;2.50;;;1.48;;
61960;SDS011;47923;42.506;24.192;2022-08-05T08:01:54;3.95;;;1.45;;
61960;SDS011;47923;42.506;24.192;2022-08-05T08:04:20;7.03;;;1.35;;
61960;SDS011;47923;42.506;24.192;2022-08-05T08:06:45;2.53;;;1.30;;
61960;SDS011;47923;42.506;24.192;2022-08-05T08:09:11;3.10;;;1.27;;
61960;SDS011;47923;42.506;24.192;2022-08-05T08:11:36;3.88;;;1.48;;
61960;SDS011;47923;42.506;24.192;2022-08-05T08:14:02;2.35;;;1.45;;
61960;SDS011;47923;42.506;24.192;2022-08-05T08:16:28;2.17;;;1.35;;
61960;SDS011;47923;42.506;24.192;2022-08-05T08:18:53;3.28;;;1.20;;
61960;SDS011;47923;42.506;24.192;2022-08-05T08:21:19;2.55;;;1.30;;
61960;SDS011;47923;42.506;24.192;2022-08-05T08:23:44;8.48;;;1.40;;
61960;SDS011;47923;42.506;24.192;2022-08-05T08:26:10;2.67;;;1.50;;
61960;SDS011;47923;42.506;24.192;2022-08-05T08:28:35;2.95;;;1.60;;
61960;SDS011;47923;42.506;24.192;2022-08-05T08:31:01;3.50;;;1.38;;
61960;SDS011;47923;42.506;24.192;2022-08-05T08:33:26;3.95;;;1.65;;
61960;SDS011;47923;42.506;24.192;2022-08-05T08:35:52;2.42;;;1.45;;
61960;SDS011;47923;42.506;24.192;2022-08-05T08:38:17;2.13;;;1.30;;
61960;SDS011;47923;42.506;24.192;2022-08-05T08:40:43;5.30;;;1.52;;
61960;SDS011;47923;42.506;24.192;2022-08-05T08:43:10;2.85;;;1.40;;
61960;SDS011;47923;42.506;24.192;2022-08-05T08:45:37;5.03;;;1.55;;
61960;SDS011;47923;42.506;24.192;2022-08-05T08:48:03;3.38;;;1.38;;
61960;SDS011;47923;42.506;24.192;2022-08-05T08:50:30;2.97;;;1.38;;
61960;SDS011;47923;42.506;24.192;2022-08-05T08:53:00;2.47;;;1.20;;
61960;SDS011;47923;42.506;24.192;2022-08-05T08:55:30;4.27;;;1.40;;
61960;SDS011;47923;42.506;24.192;2022-08-05T08:57:57;1.52;;;1.10;;
61960;SDS011;47923;42.506;24.192;2022-08-05T09:00:25;3.33;;;1.27;;
61960;SDS011;47923;42.506;24.192;2022-08-05T09:02:51;1.90;;;1.42;;
61960;SDS011;47923;42.506;24.192;2022-08-05T09:05:17;2.38;;;1.42;;
61960;SDS011;47923;42.506;24.192;2022-08-05T09:07:43;2.38;;;1.45;;
61960;SDS011;47923;42.506;24.192;2022-08-05T09:10:08;3.40;;;1.50;;
61960;SDS011;47923;42.506;24.192;2022-08-05T09:12:34;2.28;;;1.58;;
61960;SDS011;47923;42.506;24.192;2022-08-05T09:15:01;3.58;;;1.45;;
61960;SDS011;47923;42.506;24.192;2022-08-05T09:17:27;2.25;;;1.38;;
61960;SDS011;47923;42.506;24.192;2022-08-05T09:19:54;2.95;;;1.30;;
61960;SDS011;47923;42.506;24.192;2022-08-05T09:22:20;2.10;;;1.25;;
61960;SDS011;47923;42.506;24.192;2022-08-05T09:27:31;2.42;;;1.33;;
61960;SDS011;47923;42.506;24.192;2022-08-05T09:29:58;2.13;;;1.40;;
61960;SDS011;47923;42.506;24.192;2022-08-05T09:32:32;3.83;;;1.48;;
61960;SDS011;47923;42.506;24.192;2022-08-05T09:34:59;4.57;;;1.70;;
61960;SDS011;47923;42.506;24.192;2022-08-05T09:37:26;3.15;;;1.80;;
61960;SDS011;47923;42.506;24.192;2022-08-05T09:39:53;3.63;;;1.67;;
61960;SDS011;47923;42.506;24.192;2022-08-05T09:42:20;3.33;;;1.83;;
61960;SDS011;47923;42.506;24.192;2022-08-05T09:44:47;4.28;;;1.80;;
61960;SDS011;47923;42.506;24.192;2022-08-05T09:47:15;4.28;;;1.67;;
61960;SDS011;47923;42.506;24.192;2022-08-05T09:49:46;3.45;;;1.90;;
61960;SDS011;47923;42.506;24.192;2022-08-05T09:52:17;5.35;;;1.92;;
61960;SDS011;47923;42.506;24.192;2022-08-05T09:57:45;4.10;;;1.40;;
61960;SDS011;47923;42.506;24.192;2022-08-05T10:00:17;3.45;;;1.80;;
61960;SDS011;47923;42.506;24.192;2022-08-05T10:02:48;2.88;;;1.35;;
61960;SDS011;47923;42.506;24.192;2022-08-05T10:05:27;3.20;;;1.33;;
61960;SDS011;47923;42.506;24.192;2022-08-05T10:07:58;2.92;;;1.40;;
61960;SDS011;47923;42.506;24.192;2022-08-05T10:10:45;3.45;;;1.42;;
61960;SDS011;47923;42.506;24.192;2022-08-05T10:13:24;2.17;;;1.35;;
61960;SDS011;47923;42.506;24.192;2022-08-05T10:16:01;2.75;;;1.42;;
61960;SDS011;47923;42.506;24.192;2022-08-05T10:18:28;5.35;;;1.60;;
61960;SDS011;47923;42.506;24.192;2022-08-05T10:21:05;3.95;;;1.40;;
61960;SDS011;47923;42.506;24.192;2022-08-05T10:23:32;2.15;;;1.60;;
61960;SDS011;47923;42.506;24.192;2022-08-05T10:26:03;7.47;;;1.80;;
61960;SDS011;47923;42.506;24.192;2022-08-05T10:28:31;6.78;;;1.70;;
61960;SDS011;47923;42.506;24.192;2022-08-05T10:30:57;4.07;;;1.65;;
61960;SDS011;47923;42.506;24.192;2022-08-05T10:33:25;4.50;;;1.70;;
61960;SDS011;47923;42.506;24.192;2022-08-05T10:35:53;3.20;;;1.50;;
61960;SDS011;47923;42.506;24.192;2022-08-05T10:38:20;4.57;;;1.90;;
61960;SDS011;47923;42.506;24.192;2022-08-05T10:46:21;3.65;;;1.98;;
61960;SDS011;47923;42.506;24.192;2022-08-05T10:48:54;3.53;;;2.20;;
61960;SDS011;47923;42.506;24.192;2022-08-05T10:51:22;4.88;;;2.40;;
61960;SDS011;47923;42.506;24.192;2022-08-05T10:53:51;7.32;;;3.70;;
61960;SDS011;47923;42.506;24.192;2022-08-05T10:56:20;5.53;;;2.80;;
61960;SDS011;47923;42.506;24.192;2022-08-05T11:01:28;3.55;;;2.20;;
61960;SDS011;47923;42.506;24.192;2022-08-05T11:09:25;3.35;;;2.50;;
61960;SDS011;47923;42.506;24.192;2022-08-05T11:12:00;4.88;;;2.45;;
61960;SDS011;47923;42.506;24.192;2022-08-05T11:14:27;5.10;;;2.50;;
61960;SDS011;47923;42.506;24.192;2022-08-05T11:19:52;4.68;;;2.63;;
61960;SDS011;47923;42.506;24.192;2022-08-05T11:41:05;2.83;;;2.15;;
61960;SDS011;47923;42.506;24.192;2022-08-05T11:43:32;4.57;;;2.40;;
61960;SDS011;47923;42.506;24.192;2022-08-05T11:45:58;3.92;;;2.50;;
61960;SDS011;47923;42.506;24.192;2022-08-05T11:48:25;3.97;;;2.30;;
61960;SDS011;47923;42.506;24.192;2022-08-05T11:50:51;5.38;;;2.28;;
61960;SDS011;47923;42.506;24.192;2022-08-05T11:53:17;3.75;;;2.58;;
61960;SDS011;47923;42.506;24.192;2022-08-05T11:58:28;6.22;;;2.47;;
61960;SDS011;47923;42.506;24.192;2022-08-05T12:01:08;5.07;;;2.60;;
61960;SDS011;47923;42.506;24.192;2022-08-05T12:03:54;5.28;;;2.67;;
61960;SDS011;47923;42.506;24.192;2022-08-05T12:06:22;5.60;;;2.40;;
61960;SDS011;47923;42.506;24.192;2022-08-05T12:11:23;4.07;;;2.60;;
61960;SDS011;47923;42.506;24.192;2022-08-05T12:14:07;5.15;;;2.58;;
61960;SDS011;47923;42.506;24.192;2022-08-05T12:16:33;5.80;;;2.60;;
61960;SDS011;47923;42.506;24.192;2022-08-05T12:19:00;3.20;;;2.42;;
61960;SDS011;47923;42.506;24.192;2022-08-05T12:21:34;5.28;;;2.85;;
61960;SDS011;47923;42.506;24.192;2022-08-05T12:29:04;4.07;;;2.40;;
61960;SDS011;47923;42.506;24.192;2022-08-05T12:31:38;5.43;;;2.60;;
61960;SDS011;47923;42.506;24.192;2022-08-05T12:34:07;4.00;;;2.30;;
61960;SDS011;47923;42.506;24.192;2022-08-05T12:36:35;3.67;;;2.05;;
61960;SDS011;47923;42.506;24.192;2022-08-05T12:39:05;5.30;;;2.20;;
61960;SDS011;47923;42.506;24.192;2022-08-05T12:41:34;3.97;;;2.30;;
61960;SDS011;47923;42.506;24.192;2022-08-05T12:44:02;5.05;;;2.28;;
61960;SDS011;47923;42.506;24.192;2022-08-05T12:46:30;5.05;;;2.13;;
61960;SDS011;47923;42.506;24.192;2022-08-05T12:49:01;4.72;;;2.50;;
61960;SDS011;47923;42.506;24.192;2022-08-05T12:51:49;5.03;;;2.42;;
61960;SDS011;47923;42.506;24.192;2022-08-05T12:54:29;4.55;;;2.42;;
61960;SDS011;47923;42.506;24.192;2022-08-05T12:56:56;5.28;;;2.55;;
61960;SDS011;47923;42.506;24.192;2022-08-05T12:59:27;4.28;;;2.50;;
61960;SDS011;47923;42.506;24.192;2022-08-05T13:02:05;4.43;;;2.17;;
61960;SDS011;47923;42.506;24.192;2022-08-05T13:04:32;4.13;;;2.58;;
61960;SDS011;47923;42.506;24.192;2022-08-05T13:07:03;4.55;;;2.83;;
61960;SDS011;47923;42.506;24.192;2022-08-05T13:09:34;4.20;;;2.40;;
61960;SDS011;47923;42.506;24.192;2022-08-05T13:14:38;4.05;;;2.08;;
61960;SDS011;47923;42.506;24.192;2022-08-05T13:19:40;5.53;;;2.30;;
61960;SDS011;47923;42.506;24.192;2022-08-05T13:22:06;2.95;;;2.15;;
61960;SDS011;47923;42.506;24.192;2022-08-05T13:24:31;5.20;;;2.47;;
61960;SDS011;47923;42.506;24.192;2022-08-05T13:26:57;5.05;;;2.30;;
61960;SDS011;47923;42.506;24.192;2022-08-05T13:29:22;4.57;;;2.75;;
61960;SDS011;47923;42.506;24.192;2022-08-05T13:31:48;3.75;;;2.30;;
61960;SDS011;47923;42.506;24.192;2022-08-05T13:34:14;3.60;;;2.22;;
61960;SDS011;47923;42.506;24.192;2022-08-05T13:36:40;6.05;;;2.08;;
61960;SDS011;47923;42.506;24.192;2022-08-05T13:39:07;5.22;;;2.58;;
61960;SDS011;47923;42.506;24.192;2022-08-05T13:41:33;5.43;;;2.45;;
61960;SDS011;47923;42.506;24.192;2022-08-05T13:43:59;4.45;;;2.20;;
61960;SDS011;47923;42.506;24.192;2022-08-05T13:46:25;3.58;;;2.35;;
61960;SDS011;47923;42.506;24.192;2022-08-05T13:48:52;9.63;;;2.40;;
61960;SDS011;47923;42.506;24.192;2022-08-05T13:51:24;3.10;;;2.30;;
61960;SDS011;47923;42.506;24.192;2022-08-05T13:53:53;4.72;;;2.10;;
61960;SDS011;47923;42.506;24.192;2022-08-05T13:56:19;4.68;;;2.40;;
61960;SDS011;47923;42.506;24.192;2022-08-05T13:58:45;4.30;;;2.17;;
61960;SDS011;47923;42.506;24.192;2022-08-05T14:01:10;4.35;;;2.17;;
61960;SDS011;47923;42.506;24.192;2022-08-05T14:03:36;6.88;;;2.35;;
61960;SDS011;47923;42.506;24.192;2022-08-05T14:06:01;3.10;;;2.08;;
61960;SDS011;47923;42.506;24.192;2022-08-05T14:08:27;6.32;;;2.30;;
61960;SDS011;47923;42.506;24.192;2022-08-05T14:10:52;3.22;;;2.20;;
61960;SDS011;47923;42.506;24.192;2022-08-05T14:13:18;4.65;;;2.30;;
61960;SDS011;47923;42.506;24.192;2022-08-05T14:15:43;4.10;;;1.90;;
61960;SDS011;47923;42.506;24.192;2022-08-05T14:18:09;5.25;;;2.20;;
61960;SDS011;47923;42.506;24.192;2022-08-05T14:20:34;2.53;;;1.90;;
61960;SDS011;47923;42.506;24.192;2022-08-05T14:23:00;4.85;;;2.15;;
61960;SDS011;47923;42.506;24.192;2022-08-05T14:25:26;3.63;;;2.28;;
61960;SDS011;47923;42.506;24.192;2022-08-05T14:27:51;3.10;;;2.28;;
61960;SDS011;47923;42.506;24.192;2022-08-05T14:30:17;4.45;;;2.20;;
61960;SDS011;47923;42.506;24.192;2022-08-05T14:32:43;4.63;;;2.35;;
61960;SDS011;47923;42.506;24.192;2022-08-05T14:35:09;3.20;;;2.00;;
61960;SDS011;47923;42.506;24.192;2022-08-05T14:37:34;3.40;;;2.40;;
61960;SDS011;47923;42.506;24.192;2022-08-05T14:40:00;3.83;;;2.30;;
61960;SDS011;47923;42.506;24.192;2022-08-05T14:42:26;3.72;;;2.30;;
61960;SDS011;47923;42.506;24.192;2022-08-05T14:44:51;5.80;;;2.40;;
61960;SDS011;47923;42.506;24.192;2022-08-05T14:47:17;3.42;;;2.13;;
61960;SDS011;47923;42.506;24.192;2022-08-05T14:49:42;2.97;;;2.00;;
61960;SDS011;47923;42.506;24.192;2022-08-05T14:52:08;4.20;;;2.10;;
61960;SDS011;47923;42.506;24.192;2022-08-05T14:54:33;5.50;;;2.20;;
61960;SDS011;47923;42.506;24.192;2022-08-05T14:56:59;6.72;;;2.95;;
61960;SDS011;47923;42.506;24.192;2022-08-05T14:59:24;6.15;;;2.45;;
61960;SDS011;47923;42.506;24.192;2022-08-05T15:01:50;3.53;;;2.40;;
61960;SDS011;47923;42.506;24.192;2022-08-05T15:04:16;4.50;;;2.40;;
61960;SDS011;47923;42.506;24.192;2022-08-05T15:06:43;3.92;;;2.20;;
61960;SDS011;47923;42.506;24.192;2022-08-05T15:09:08;3.92;;;2.47;;
61960;SDS011;47923;42.506;24.192;2022-08-05T15:11:34;4.65;;;2.55;;
61960;SDS011;47923;42.506;24.192;2022-08-05T15:14:00;3.40;;;2.13;;
61960;SDS011;47923;42.506;24.192;2022-08-05T15:16:26;5.47;;;2.63;;
61960;SDS011;47923;42.506;24.192;2022-08-05T15:18:51;4.90;;;2.53;;
61960;SDS011;47923;42.506;24.192;2022-08-05T15:21:17;5.22;;;2.58;;
61960;SDS011;47923;42.506;24.192;2022-08-05T15:23:42;3.63;;;2.10;;
61960;SDS011;47923;42.506;24.192;2022-08-05T15:26:08;3.45;;;2.40;;
61960;SDS011;47923;42.506;24.192;2022-08-05T15:28:33;2.72;;;2.15;;
61960;SDS011;47923;42.506;24.192;2022-08-05T15:30:59;6.53;;;3.38;;
61960;SDS011;47923;42.506;24.192;2022-08-05T15:33:24;4.68;;;2.88;;
61960;SDS011;47923;42.506;24.192;2022-08-05T15:35:50;5.00;;;2.50;;
61960;SDS011;47923;42.506;24.192;2022-08-05T15:38:15;4.95;;;2.60;;
61960;SDS011;47923;42.506;24.192;2022-08-05T15:40:41;5.80;;;2.40;;
61960;SDS011;47923;42.506;24.192;2022-08-05T15:43:06;3.65;;;2.55;;